sensor_id;sensor_type;location;lat;lon;timestamp;P1;durP1;ratioP1;P2;durP2;ratioP2
68803;SDS011;55787;52.678;13.314;2023-05-07T00:00:18;22.02;;;10.30;;
68803;SDS011;55787;52.678;13.314;2023-05-07T00:02:45;19.40;;;9.85;;
68803;SDS011;55787;52.678;13.314;2023-05-07T00:05:12;18.33;;;9.15;;
68803;SDS011;55787;52.678;13.314;2023-05-07T00:07:41;18.08;;;9.95;;
68803;SDS011;55787;52.678;13.314;2023-05-07T00:10:08;20.02;;;9.98;;
68803;SDS011;55787;52.678;13.314;2023-05-07T00:12:35;19.25;;;9.82;;
68803;SDS011;55787;52.678;13.314;2023-05-07T00:15:02;19.25;;;9.10;;
68803;SDS011;55787;52.678;13.314;2023-05-07T00:17:30;22.23;;;9.88;;
68803;SDS011;55787;52.678;13.314;2023-05-07T00:19:57;18.92;;;9.65;;
68803;SDS011;55787;52.678;13.314;2023-05-07T00:22:23;19.83;;;10.07;;
68803;SDS011;55787;52.678;13.314;2023-05-07T00:24:50;24.67;;;9.35;;
68803;SDS011;55787;52.678;13.314;2023-05-07T00:27:16;19.20;;;9.35;;
68803;SDS011;55787;52.678;13.314;2023-05-07T00:29:43;18.48;;;9.50;;
68803;SDS011;55787;52.678;13.314;2023-05-07T00:32:10;19.35;;;9.35;;
68803;SDS011;55787;52.678;13.314;2023-05-07T00:34:36;17.00;;;8.93;;
68803;SDS011;55787;52.678;13.314;2023-05-07T00:37:03;20.85;;;9.38;;
68803;SDS011;55787;52.678;13.314;2023-05-07T00:39:32;16.38;;;9.13;;
68803;SDS011;55787;52.678;13.314;2023-05-07T00:41:58;17.67;;;9.27;;
68803;SDS011;55787;52.678;13.314;2023-05-07T00:44:26;17.60;;;9.05;;
68803;SDS011;55787;52.678;13.314;2023-05-07T00:46:55;18.88;;;9.48;;
68803;SDS011;55787;52.678;13.314;2023-05-07T00:49:28;17.15;;;9.02;;
68803;SDS011;55787;52.678;13.314;2023-05-07T00:52:05;18.55;;;9.60;;
68803;SDS011;55787;52.678;13.314;2023-05-07T00:54:34;19.27;;;9.60;;
68803;SDS011;55787;52.678;13.314;2023-05-07T00:57:01;17.23;;;8.85;;
68803;SDS011;55787;52.678;13.314;2023-05-07T00:59:30;16.88;;;8.30;;
68803;SDS011;55787;52.678;13.314;2023-05-07T01:01:58;19.45;;;8.98;;
68803;SDS011;55787;52.678;13.314;2023-05-07T01:04:25;17.63;;;9.68;;
68803;SDS011;55787;52.678;13.314;2023-05-07T01:06:56;18.08;;;9.27;;
68803;SDS011;55787;52.678;13.314;2023-05-07T01:09:26;20.30;;;9.77;;
68803;SDS011;55787;52.678;13.314;2023-05-07T01:11:54;18.92;;;9.50;;
68803;SDS011;55787;52.678;13.314;2023-05-07T01:14:23;18.92;;;9.05;;
68803;SDS011;55787;52.678;13.314;2023-05-07T01:16:50;20.15;;;9.70;;
68803;SDS011;55787;52.678;13.314;2023-05-07T01:19:17;19.10;;;9.48;;
68803;SDS011;55787;52.678;13.314;2023-05-07T01:21:46;18.13;;;9.50;;
68803;SDS011;55787;52.678;13.314;2023-05-07T01:24:14;18.45;;;9.20;;
68803;SDS011;55787;52.678;13.314;2023-05-07T01:26:42;17.67;;;9.35;;
68803;SDS011;55787;52.678;13.314;2023-05-07T01:29:13;18.10;;;9.38;;
68803;SDS011;55787;52.678;13.314;2023-05-07T01:31:40;21.55;;;9.57;;
68803;SDS011;55787;52.678;13.314;2023-05-07T01:34:09;19.63;;;9.73;;
68803;SDS011;55787;52.678;13.314;2023-05-07T01:36:38;17.80;;;9.57;;
68803;SDS011;55787;52.678;13.314;2023-05-07T01:39:06;19.60;;;9.80;;
68803;SDS011;55787;52.678;13.314;2023-05-07T01:41:35;18.13;;;9.30;;
68803;SDS011;55787;52.678;13.314;2023-05-07T01:44:02;16.85;;;8.82;;
68803;SDS011;55787;52.678;13.314;2023-05-07T01:46:29;18.50;;;8.90;;
68803;SDS011;55787;52.678;13.314;2023-05-07T01:48:57;19.35;;;9.00;;
68803;SDS011;55787;52.678;13.314;2023-05-07T01:51:24;16.52;;;9.27;;
68803;SDS011;55787;52.678;13.314;2023-05-07T01:53:52;17.30;;;8.10;;
68803;SDS011;55787;52.678;13.314;2023-05-07T01:56:19;15.52;;;8.55;;
68803;SDS011;55787;52.678;13.314;2023-05-07T01:58:46;17.08;;;7.80;;
68803;SDS011;55787;52.678;13.314;2023-05-07T02:01:13;16.98;;;8.50;;
68803;SDS011;55787;52.678;13.314;2023-05-07T02:03:40;14.57;;;7.50;;
68803;SDS011;55787;52.678;13.314;2023-05-07T02:06:08;18.50;;;8.27;;
68803;SDS011;55787;52.678;13.314;2023-05-07T02:08:35;17.27;;;7.70;;
68803;SDS011;55787;52.678;13.314;2023-05-07T02:11:01;15.98;;;8.32;;
68803;SDS011;55787;52.678;13.314;2023-05-07T02:13:29;16.85;;;8.27;;
68803;SDS011;55787;52.678;13.314;2023-05-07T02:15:57;16.77;;;7.85;;
68803;SDS011;55787;52.678;13.314;2023-05-07T02:18:24;18.13;;;8.43;;
68803;SDS011;55787;52.678;13.314;2023-05-07T02:20:54;15.50;;;7.75;;
68803;SDS011;55787;52.678;13.314;2023-05-07T02:23:22;16.83;;;8.27;;
68803;SDS011;55787;52.678;13.314;2023-05-07T02:25:48;16.02;;;7.75;;
68803;SDS011;55787;52.678;13.314;2023-05-07T02:28:15;15.88;;;8.30;;
68803;SDS011;55787;52.678;13.314;2023-05-07T02:30:42;17.88;;;8.05;;
68803;SDS011;55787;52.678;13.314;2023-05-07T02:33:08;17.17;;;7.85;;
68803;SDS011;55787;52.678;13.314;2023-05-07T02:35:36;15.70;;;7.60;;
68803;SDS011;55787;52.678;13.314;2023-05-07T02:38:02;14.90;;;7.78;;
68803;SDS011;55787;52.678;13.314;2023-05-07T02:40:29;14.80;;;7.05;;
68803;SDS011;55787;52.678;13.314;2023-05-07T02:42:56;15.13;;;7.32;;
68803;SDS011;55787;52.678;13.314;2023-05-07T02:45:22;15.27;;;7.38;;
68803;SDS011;55787;52.678;13.314;2023-05-07T02:47:49;15.20;;;7.32;;
68803;SDS011;55787;52.678;13.314;2023-05-07T02:50:16;15.75;;;6.93;;
68803;SDS011;55787;52.678;13.314;2023-05-07T02:52:42;15.23;;;7.10;;
68803;SDS011;55787;52.678;13.314;2023-05-07T02:55:09;13.45;;;6.30;;
68803;SDS011;55787;52.678;13.314;2023-05-07T02:57:36;15.07;;;6.82;;
68803;SDS011;55787;52.678;13.314;2023-05-07T03:02:59;12.73;;;6.38;;
68803;SDS011;55787;52.678;13.314;2023-05-07T03:05:26;14.65;;;6.57;;
68803;SDS011;55787;52.678;13.314;2023-05-07T03:07:52;13.32;;;6.55;;
68803;SDS011;55787;52.678;13.314;2023-05-07T03:10:19;14.95;;;6.65;;
68803;SDS011;55787;52.678;13.314;2023-05-07T03:12:46;14.60;;;6.70;;
68803;SDS011;55787;52.678;13.314;2023-05-07T03:15:12;14.63;;;6.90;;
68803;SDS011;55787;52.678;13.314;2023-05-07T03:17:39;13.98;;;6.45;;
68803;SDS011;55787;52.678;13.314;2023-05-07T03:20:06;13.25;;;6.20;;
68803;SDS011;55787;52.678;13.314;2023-05-07T03:22:34;14.85;;;6.72;;
68803;SDS011;55787;52.678;13.314;2023-05-07T03:25:01;15.15;;;6.72;;
68803;SDS011;55787;52.678;13.314;2023-05-07T03:27:28;14.18;;;6.47;;
68803;SDS011;55787;52.678;13.314;2023-05-07T03:29:54;13.93;;;6.68;;
68803;SDS011;55787;52.678;13.314;2023-05-07T03:32:21;13.43;;;6.30;;
68803;SDS011;55787;52.678;13.314;2023-05-07T03:34:48;14.98;;;6.60;;
68803;SDS011;55787;52.678;13.314;2023-05-07T03:37:14;13.98;;;6.40;;
68803;SDS011;55787;52.678;13.314;2023-05-07T03:39:41;13.15;;;5.95;;
68803;SDS011;55787;52.678;13.314;2023-05-07T03:42:08;13.63;;;6.40;;
68803;SDS011;55787;52.678;13.314;2023-05-07T03:44:34;13.13;;;6.32;;
68803;SDS011;55787;52.678;13.314;2023-05-07T03:47:02;14.15;;;6.03;;
68803;SDS011;55787;52.678;13.314;2023-05-07T03:49:29;15.98;;;6.30;;
68803;SDS011;55787;52.678;13.314;2023-05-07T03:51:56;13.85;;;6.15;;
68803;SDS011;55787;52.678;13.314;2023-05-07T03:54:23;12.00;;;5.45;;
68803;SDS011;55787;52.678;13.314;2023-05-07T03:56:49;12.43;;;6.10;;
68803;SDS011;55787;52.678;13.314;2023-05-07T03:59:16;12.00;;;5.70;;
68803;SDS011;55787;52.678;13.314;2023-05-07T04:01:42;14.13;;;5.78;;
68803;SDS011;55787;52.678;13.314;2023-05-07T04:04:09;12.05;;;5.32;;
68803;SDS011;55787;52.678;13.314;2023-05-07T04:06:36;12.27;;;5.60;;
68803;SDS011;55787;52.678;13.314;2023-05-07T04:09:03;12.55;;;5.75;;
68803;SDS011;55787;52.678;13.314;2023-05-07T04:11:30;13.10;;;5.55;;
68803;SDS011;55787;52.678;13.314;2023-05-07T04:13:56;12.35;;;5.68;;
68803;SDS011;55787;52.678;13.314;2023-05-07T04:16:23;13.73;;;5.47;;
68803;SDS011;55787;52.678;13.314;2023-05-07T04:18:50;12.20;;;5.60;;
68803;SDS011;55787;52.678;13.314;2023-05-07T04:21:17;13.07;;;5.47;;
68803;SDS011;55787;52.678;13.314;2023-05-07T04:23:45;12.93;;;5.60;;
68803;SDS011;55787;52.678;13.314;2023-05-07T04:26:13;13.90;;;5.65;;
68803;SDS011;55787;52.678;13.314;2023-05-07T04:28:41;13.02;;;5.20;;
68803;SDS011;55787;52.678;13.314;2023-05-07T04:31:08;12.57;;;5.00;;
68803;SDS011;55787;52.678;13.314;2023-05-07T04:33:34;11.80;;;5.53;;
68803;SDS011;55787;52.678;13.314;2023-05-07T04:36:01;11.68;;;5.20;;
68803;SDS011;55787;52.678;13.314;2023-05-07T04:38:29;13.05;;;5.25;;
68803;SDS011;55787;52.678;13.314;2023-05-07T04:40:58;11.20;;;5.10;;
68803;SDS011;55787;52.678;13.314;2023-05-07T04:43:29;13.43;;;5.32;;
68803;SDS011;55787;52.678;13.314;2023-05-07T04:45:56;11.70;;;5.20;;
68803;SDS011;55787;52.678;13.314;2023-05-07T04:48:23;11.85;;;5.30;;
68803;SDS011;55787;52.678;13.314;2023-05-07T04:50:50;12.10;;;5.35;;
68803;SDS011;55787;52.678;13.314;2023-05-07T04:53:17;13.25;;;5.47;;
68803;SDS011;55787;52.678;13.314;2023-05-07T04:55:44;12.35;;;5.38;;
68803;SDS011;55787;52.678;13.314;2023-05-07T04:58:11;13.10;;;5.80;;
68803;SDS011;55787;52.678;13.314;2023-05-07T05:00:38;12.35;;;5.13;;
68803;SDS011;55787;52.678;13.314;2023-05-07T05:03:06;12.20;;;5.10;;
68803;SDS011;55787;52.678;13.314;2023-05-07T05:05:33;12.05;;;5.07;;
68803;SDS011;55787;52.678;13.314;2023-05-07T05:08:00;13.63;;;5.43;;
68803;SDS011;55787;52.678;13.314;2023-05-07T05:10:26;12.27;;;5.90;;
68803;SDS011;55787;52.678;13.314;2023-05-07T05:12:53;13.43;;;5.45;;
68803;SDS011;55787;52.678;13.314;2023-05-07T05:15:20;13.10;;;5.78;;
68803;SDS011;55787;52.678;13.314;2023-05-07T05:17:46;13.73;;;5.80;;
68803;SDS011;55787;52.678;13.314;2023-05-07T05:20:13;13.15;;;5.30;;
68803;SDS011;55787;52.678;13.314;2023-05-07T05:22:41;13.32;;;5.20;;
68803;SDS011;55787;52.678;13.314;2023-05-07T05:25:08;12.57;;;5.10;;
68803;SDS011;55787;52.678;13.314;2023-05-07T05:27:35;12.15;;;5.05;;
68803;SDS011;55787;52.678;13.314;2023-05-07T05:30:02;11.82;;;4.30;;
68803;SDS011;55787;52.678;13.314;2023-05-07T05:32:29;13.23;;;5.20;;
68803;SDS011;55787;52.678;13.314;2023-05-07T05:34:56;13.90;;;5.60;;
68803;SDS011;55787;52.678;13.314;2023-05-07T05:37:23;12.80;;;5.32;;
68803;SDS011;55787;52.678;13.314;2023-05-07T05:39:49;11.68;;;5.07;;
68803;SDS011;55787;52.678;13.314;2023-05-07T05:42:16;15.27;;;5.15;;
68803;SDS011;55787;52.678;13.314;2023-05-07T05:44:43;12.25;;;5.45;;
68803;SDS011;55787;52.678;13.314;2023-05-07T05:47:09;13.45;;;5.53;;
68803;SDS011;55787;52.678;13.314;2023-05-07T05:49:36;12.10;;;5.30;;
68803;SDS011;55787;52.678;13.314;2023-05-07T05:52:03;11.38;;;5.20;;
68803;SDS011;55787;52.678;13.314;2023-05-07T05:54:30;10.10;;;4.38;;
68803;SDS011;55787;52.678;13.314;2023-05-07T05:56:56;10.50;;;4.90;;
68803;SDS011;55787;52.678;13.314;2023-05-07T05:59:23;10.13;;;4.57;;
68803;SDS011;55787;52.678;13.314;2023-05-07T06:01:50;10.02;;;4.50;;
68803;SDS011;55787;52.678;13.314;2023-05-07T06:04:16;9.98;;;4.95;;
68803;SDS011;55787;52.678;13.314;2023-05-07T06:06:43;10.25;;;4.57;;
68803;SDS011;55787;52.678;13.314;2023-05-07T06:09:09;9.90;;;4.45;;
68803;SDS011;55787;52.678;13.314;2023-05-07T06:11:36;10.45;;;4.68;;
68803;SDS011;55787;52.678;13.314;2023-05-07T06:14:03;11.07;;;5.10;;
68803;SDS011;55787;52.678;13.314;2023-05-07T06:16:29;9.25;;;4.55;;
68803;SDS011;55787;52.678;13.314;2023-05-07T06:18:56;10.60;;;4.70;;
68803;SDS011;55787;52.678;13.314;2023-05-07T06:21:23;10.77;;;4.65;;
68803;SDS011;55787;52.678;13.314;2023-05-07T06:23:49;10.65;;;4.55;;
68803;SDS011;55787;52.678;13.314;2023-05-07T06:26:18;12.82;;;5.25;;
68803;SDS011;55787;52.678;13.314;2023-05-07T06:28:45;8.60;;;4.28;;
68803;SDS011;55787;52.678;13.314;2023-05-07T06:31:15;10.65;;;4.30;;
68803;SDS011;55787;52.678;13.314;2023-05-07T06:33:44;10.32;;;4.80;;
68803;SDS011;55787;52.678;13.314;2023-05-07T06:36:11;11.00;;;4.65;;
68803;SDS011;55787;52.678;13.314;2023-05-07T06:38:37;9.10;;;4.28;;
68803;SDS011;55787;52.678;13.314;2023-05-07T06:41:05;10.55;;;4.80;;
68803;SDS011;55787;52.678;13.314;2023-05-07T06:43:32;10.02;;;5.07;;
68803;SDS011;55787;52.678;13.314;2023-05-07T06:45:59;13.82;;;4.82;;
68803;SDS011;55787;52.678;13.314;2023-05-07T06:48:26;9.82;;;4.47;;
68803;SDS011;55787;52.678;13.314;2023-05-07T06:50:52;9.45;;;4.30;;
68803;SDS011;55787;52.678;13.314;2023-05-07T06:53:22;9.32;;;4.20;;
68803;SDS011;55787;52.678;13.314;2023-05-07T06:55:49;11.32;;;4.90;;
68803;SDS011;55787;52.678;13.314;2023-05-07T06:58:16;10.20;;;4.60;;
68803;SDS011;55787;52.678;13.314;2023-05-07T07:00:43;9.88;;;4.40;;
68803;SDS011;55787;52.678;13.314;2023-05-07T07:03:09;11.90;;;4.72;;
68803;SDS011;55787;52.678;13.314;2023-05-07T07:05:37;13.13;;;5.20;;
68803;SDS011;55787;52.678;13.314;2023-05-07T07:08:04;12.48;;;5.05;;
68803;SDS011;55787;52.678;13.314;2023-05-07T07:10:31;9.05;;;4.30;;
68803;SDS011;55787;52.678;13.314;2023-05-07T07:12:57;11.18;;;4.97;;
68803;SDS011;55787;52.678;13.314;2023-05-07T07:15:24;10.98;;;5.45;;
68803;SDS011;55787;52.678;13.314;2023-05-07T07:17:51;10.00;;;4.70;;
68803;SDS011;55787;52.678;13.314;2023-05-07T07:20:18;10.02;;;4.38;;
68803;SDS011;55787;52.678;13.314;2023-05-07T07:22:44;8.77;;;4.13;;
68803;SDS011;55787;52.678;13.314;2023-05-07T07:25:11;9.65;;;4.35;;
68803;SDS011;55787;52.678;13.314;2023-05-07T07:27:38;8.90;;;4.35;;
68803;SDS011;55787;52.678;13.314;2023-05-07T07:30:06;9.43;;;3.65;;
68803;SDS011;55787;52.678;13.314;2023-05-07T07:32:34;7.75;;;3.58;;
68803;SDS011;55787;52.678;13.314;2023-05-07T07:35:01;8.02;;;3.80;;
68803;SDS011;55787;52.678;13.314;2023-05-07T07:37:28;7.38;;;3.05;;
68803;SDS011;55787;52.678;13.314;2023-05-07T07:39:55;7.53;;;3.30;;
68803;SDS011;55787;52.678;13.314;2023-05-07T07:42:22;7.63;;;3.00;;
68803;SDS011;55787;52.678;13.314;2023-05-07T07:44:49;8.13;;;3.08;;
68803;SDS011;55787;52.678;13.314;2023-05-07T07:47:16;8.00;;;3.65;;
68803;SDS011;55787;52.678;13.314;2023-05-07T07:49:43;9.55;;;3.75;;
68803;SDS011;55787;52.678;13.314;2023-05-07T07:52:11;8.10;;;3.40;;
68803;SDS011;55787;52.678;13.314;2023-05-07T07:54:38;8.32;;;3.20;;
68803;SDS011;55787;52.678;13.314;2023-05-07T07:57:06;7.47;;;3.28;;
68803;SDS011;55787;52.678;13.314;2023-05-07T07:59:33;7.53;;;3.40;;
68803;SDS011;55787;52.678;13.314;2023-05-07T08:01:59;7.90;;;3.20;;
68803;SDS011;55787;52.678;13.314;2023-05-07T08:04:26;7.70;;;3.40;;
68803;SDS011;55787;52.678;13.314;2023-05-07T08:06:53;7.85;;;3.20;;
68803;SDS011;55787;52.678;13.314;2023-05-07T08:09:20;8.65;;;2.63;;
68803;SDS011;55787;52.678;13.314;2023-05-07T08:11:47;7.13;;;3.17;;
68803;SDS011;55787;52.678;13.314;2023-05-07T08:14:14;7.65;;;3.03;;
68803;SDS011;55787;52.678;13.314;2023-05-07T08:16:42;6.50;;;3.00;;
68803;SDS011;55787;52.678;13.314;2023-05-07T08:19:09;7.05;;;3.10;;
68803;SDS011;55787;52.678;13.314;2023-05-07T08:21:38;6.53;;;3.00;;
68803;SDS011;55787;52.678;13.314;2023-05-07T08:24:06;7.22;;;2.72;;
68803;SDS011;55787;52.678;13.314;2023-05-07T08:26:33;6.72;;;3.00;;
68803;SDS011;55787;52.678;13.314;2023-05-07T08:28:59;7.32;;;2.65;;
68803;SDS011;55787;52.678;13.314;2023-05-07T08:31:26;7.07;;;2.70;;
68803;SDS011;55787;52.678;13.314;2023-05-07T08:33:53;6.70;;;2.88;;
68803;SDS011;55787;52.678;13.314;2023-05-07T08:36:20;7.60;;;2.85;;
68803;SDS011;55787;52.678;13.314;2023-05-07T08:38:46;7.60;;;3.17;;
68803;SDS011;55787;52.678;13.314;2023-05-07T08:41:13;6.30;;;2.78;;
68803;SDS011;55787;52.678;13.314;2023-05-07T08:43:40;6.25;;;2.63;;
68803;SDS011;55787;52.678;13.314;2023-05-07T08:46:08;7.15;;;2.80;;
68803;SDS011;55787;52.678;13.314;2023-05-07T08:48:38;6.63;;;3.20;;
68803;SDS011;55787;52.678;13.314;2023-05-07T08:51:05;6.85;;;3.10;;
68803;SDS011;55787;52.678;13.314;2023-05-07T08:53:32;8.32;;;2.83;;
68803;SDS011;55787;52.678;13.314;2023-05-07T08:55:59;8.95;;;2.90;;
68803;SDS011;55787;52.678;13.314;2023-05-07T08:58:27;7.72;;;2.72;;
68803;SDS011;55787;52.678;13.314;2023-05-07T09:00:53;7.40;;;2.70;;
68803;SDS011;55787;52.678;13.314;2023-05-07T09:03:20;8.43;;;2.47;;
68803;SDS011;55787;52.678;13.314;2023-05-07T09:05:47;7.30;;;2.70;;
68803;SDS011;55787;52.678;13.314;2023-05-07T09:08:14;6.68;;;2.30;;
68803;SDS011;55787;52.678;13.314;2023-05-07T09:10:42;6.80;;;2.78;;
68803;SDS011;55787;52.678;13.314;2023-05-07T09:13:08;7.15;;;2.83;;
68803;SDS011;55787;52.678;13.314;2023-05-07T09:15:39;7.55;;;2.88;;
68803;SDS011;55787;52.678;13.314;2023-05-07T09:18:06;7.20;;;2.83;;
68803;SDS011;55787;52.678;13.314;2023-05-07T09:20:33;7.30;;;3.15;;
68803;SDS011;55787;52.678;13.314;2023-05-07T09:22:59;7.80;;;3.00;;
68803;SDS011;55787;52.678;13.314;2023-05-07T09:25:30;6.93;;;2.97;;
68803;SDS011;55787;52.678;13.314;2023-05-07T09:27:58;7.45;;;2.55;;
68803;SDS011;55787;52.678;13.314;2023-05-07T09:30:32;6.50;;;2.20;;
68803;SDS011;55787;52.678;13.314;2023-05-07T09:33:01;10.30;;;2.45;;
68803;SDS011;55787;52.678;13.314;2023-05-07T09:35:30;6.30;;;2.50;;
68803;SDS011;55787;52.678;13.314;2023-05-07T09:37:57;6.53;;;2.40;;
68803;SDS011;55787;52.678;13.314;2023-05-07T09:40:29;6.45;;;2.30;;
68803;SDS011;55787;52.678;13.314;2023-05-07T09:43:07;6.97;;;2.20;;
68803;SDS011;55787;52.678;13.314;2023-05-07T09:45:35;7.80;;;2.60;;
68803;SDS011;55787;52.678;13.314;2023-05-07T09:48:04;7.03;;;2.60;;
68803;SDS011;55787;52.678;13.314;2023-05-07T09:50:44;7.68;;;2.70;;
68803;SDS011;55787;52.678;13.314;2023-05-07T09:53:15;6.93;;;2.40;;
68803;SDS011;55787;52.678;13.314;2023-05-07T09:55:43;6.97;;;2.90;;
68803;SDS011;55787;52.678;13.314;2023-05-07T09:58:12;6.55;;;2.60;;
68803;SDS011;55787;52.678;13.314;2023-05-07T10:00:39;7.05;;;2.33;;
68803;SDS011;55787;52.678;13.314;2023-05-07T10:03:07;7.47;;;2.13;;
68803;SDS011;55787;52.678;13.314;2023-05-07T10:05:35;8.50;;;2.42;;
68803;SDS011;55787;52.678;13.314;2023-05-07T10:08:02;7.63;;;2.75;;
68803;SDS011;55787;52.678;13.314;2023-05-07T10:10:30;6.28;;;2.13;;
68803;SDS011;55787;52.678;13.314;2023-05-07T10:12:59;6.93;;;2.05;;
68803;SDS011;55787;52.678;13.314;2023-05-07T10:15:26;6.28;;;2.30;;
68803;SDS011;55787;52.678;13.314;2023-05-07T10:17:54;7.03;;;2.13;;
68803;SDS011;55787;52.678;13.314;2023-05-07T10:20:22;7.00;;;2.50;;
68803;SDS011;55787;52.678;13.314;2023-05-07T10:22:49;6.88;;;2.35;;
68803;SDS011;55787;52.678;13.314;2023-05-07T10:25:21;6.10;;;2.10;;
68803;SDS011;55787;52.678;13.314;2023-05-07T10:27:49;6.40;;;2.20;;
68803;SDS011;55787;52.678;13.314;2023-05-07T10:33:07;7.30;;;2.10;;
68803;SDS011;55787;52.678;13.314;2023-05-07T10:35:40;6.65;;;2.15;;
68803;SDS011;55787;52.678;13.314;2023-05-07T10:38:09;7.18;;;2.10;;
68803;SDS011;55787;52.678;13.314;2023-05-07T10:40:36;6.13;;;1.85;;
68803;SDS011;55787;52.678;13.314;2023-05-07T10:43:03;6.95;;;1.80;;
68803;SDS011;55787;52.678;13.314;2023-05-07T10:45:35;7.13;;;1.65;;
68803;SDS011;55787;52.678;13.314;2023-05-07T10:51:17;6.28;;;1.95;;
68803;SDS011;55787;52.678;13.314;2023-05-07T10:54:17;6.45;;;2.15;;
68803;SDS011;55787;52.678;13.314;2023-05-07T10:56:40;5.60;;;1.67;;
68803;SDS011;55787;52.678;13.314;2023-05-07T11:01:53;6.65;;;1.70;;
68803;SDS011;55787;52.678;13.314;2023-05-07T11:04:22;5.60;;;1.40;;
68803;SDS011;55787;52.678;13.314;2023-05-07T11:15:05;5.78;;;1.70;;
68803;SDS011;55787;52.678;13.314;2023-05-07T11:17:33;5.30;;;1.42;;
68803;SDS011;55787;52.678;13.314;2023-05-07T11:20:03;7.07;;;2.40;;
68803;SDS011;55787;52.678;13.314;2023-05-07T11:25:01;5.63;;;1.75;;
68803;SDS011;55787;52.678;13.314;2023-05-07T11:27:29;6.13;;;1.88;;
68803;SDS011;55787;52.678;13.314;2023-05-07T11:29:56;6.22;;;1.85;;
68803;SDS011;55787;52.678;13.314;2023-05-07T11:32:23;6.63;;;2.00;;
68803;SDS011;55787;52.678;13.314;2023-05-07T11:34:51;6.00;;;2.20;;
68803;SDS011;55787;52.678;13.314;2023-05-07T11:37:21;7.05;;;2.28;;
68803;SDS011;55787;52.678;13.314;2023-05-07T11:39:49;5.70;;;1.77;;
68803;SDS011;55787;52.678;13.314;2023-05-07T11:42:30;6.63;;;2.00;;
68803;SDS011;55787;52.678;13.314;2023-05-07T11:44:58;5.90;;;1.73;;
68803;SDS011;55787;52.678;13.314;2023-05-07T11:47:25;6.95;;;1.98;;
68803;SDS011;55787;52.678;13.314;2023-05-07T11:49:53;6.18;;;1.83;;
68803;SDS011;55787;52.678;13.314;2023-05-07T11:52:23;6.72;;;1.85;;
68803;SDS011;55787;52.678;13.314;2023-05-07T11:57:24;6.97;;;1.90;;
68803;SDS011;55787;52.678;13.314;2023-05-07T11:59:57;6.50;;;1.90;;
68803;SDS011;55787;52.678;13.314;2023-05-07T12:02:25;5.78;;;1.50;;
68803;SDS011;55787;52.678;13.314;2023-05-07T12:04:52;5.55;;;1.42;;
68803;SDS011;55787;52.678;13.314;2023-05-07T12:07:20;6.28;;;1.70;;
68803;SDS011;55787;52.678;13.314;2023-05-07T12:09:47;6.65;;;1.60;;
68803;SDS011;55787;52.678;13.314;2023-05-07T12:12:14;5.90;;;1.40;;
68803;SDS011;55787;52.678;13.314;2023-05-07T12:14:44;6.20;;;1.92;;
68803;SDS011;55787;52.678;13.314;2023-05-07T12:17:12;6.07;;;1.65;;
68803;SDS011;55787;52.678;13.314;2023-05-07T12:19:41;6.43;;;1.58;;
68803;SDS011;55787;52.678;13.314;2023-05-07T12:22:09;6.57;;;1.33;;
68803;SDS011;55787;52.678;13.314;2023-05-07T12:24:43;5.57;;;1.60;;
68803;SDS011;55787;52.678;13.314;2023-05-07T12:27:11;6.53;;;1.80;;
68803;SDS011;55787;52.678;13.314;2023-05-07T12:29:37;6.05;;;1.92;;
68803;SDS011;55787;52.678;13.314;2023-05-07T12:32:06;5.20;;;1.52;;
68803;SDS011;55787;52.678;13.314;2023-05-07T12:34:33;6.50;;;1.67;;
68803;SDS011;55787;52.678;13.314;2023-05-07T12:37:03;5.78;;;1.55;;
68803;SDS011;55787;52.678;13.314;2023-05-07T12:39:30;5.90;;;1.77;;
68803;SDS011;55787;52.678;13.314;2023-05-07T12:41:57;6.50;;;1.63;;
68803;SDS011;55787;52.678;13.314;2023-05-07T12:44:25;6.72;;;1.83;;
68803;SDS011;55787;52.678;13.314;2023-05-07T12:46:56;5.25;;;1.50;;
68803;SDS011;55787;52.678;13.314;2023-05-07T12:49:23;5.60;;;1.48;;
68803;SDS011;55787;52.678;13.314;2023-05-07T12:51:51;7.65;;;1.55;;
68803;SDS011;55787;52.678;13.314;2023-05-07T12:54:31;5.82;;;2.03;;
68803;SDS011;55787;52.678;13.314;2023-05-07T12:57:08;7.10;;;1.70;;
68803;SDS011;55787;52.678;13.314;2023-05-07T12:59:36;5.80;;;1.58;;
68803;SDS011;55787;52.678;13.314;2023-05-07T13:02:04;5.20;;;1.42;;
68803;SDS011;55787;52.678;13.314;2023-05-07T13:04:32;6.82;;;1.67;;
68803;SDS011;55787;52.678;13.314;2023-05-07T13:06:59;5.50;;;1.58;;
68803;SDS011;55787;52.678;13.314;2023-05-07T13:09:26;7.40;;;2.15;;
68803;SDS011;55787;52.678;13.314;2023-05-07T13:11:55;5.40;;;1.50;;
68803;SDS011;55787;52.678;13.314;2023-05-07T13:14:21;6.50;;;1.70;;
68803;SDS011;55787;52.678;13.314;2023-05-07T13:16:48;10.48;;;4.63;;
68803;SDS011;55787;52.678;13.314;2023-05-07T13:19:15;5.85;;;1.70;;
68803;SDS011;55787;52.678;13.314;2023-05-07T13:21:42;6.13;;;1.50;;
68803;SDS011;55787;52.678;13.314;2023-05-07T13:24:09;5.65;;;1.55;;
68803;SDS011;55787;52.678;13.314;2023-05-07T13:26:35;5.25;;;1.40;;
68803;SDS011;55787;52.678;13.314;2023-05-07T13:29:02;7.43;;;1.50;;
68803;SDS011;55787;52.678;13.314;2023-05-07T13:31:29;5.85;;;1.70;;
68803;SDS011;55787;52.678;13.314;2023-05-07T13:33:56;5.80;;;1.30;;
68803;SDS011;55787;52.678;13.314;2023-05-07T13:36:22;6.32;;;1.50;;
68803;SDS011;55787;52.678;13.314;2023-05-07T13:38:50;6.20;;;1.50;;
68803;SDS011;55787;52.678;13.314;2023-05-07T13:41:17;5.60;;;1.70;;
68803;SDS011;55787;52.678;13.314;2023-05-07T13:43:44;5.43;;;1.58;;
68803;SDS011;55787;52.678;13.314;2023-05-07T13:46:11;6.65;;;1.70;;
68803;SDS011;55787;52.678;13.314;2023-05-07T13:48:37;7.50;;;1.80;;
68803;SDS011;55787;52.678;13.314;2023-05-07T13:51:04;6.55;;;1.98;;
68803;SDS011;55787;52.678;13.314;2023-05-07T13:53:31;6.47;;;1.73;;
68803;SDS011;55787;52.678;13.314;2023-05-07T13:55:57;7.32;;;2.03;;
68803;SDS011;55787;52.678;13.314;2023-05-07T13:58:24;5.70;;;1.73;;
68803;SDS011;55787;52.678;13.314;2023-05-07T14:00:51;6.95;;;1.67;;
68803;SDS011;55787;52.678;13.314;2023-05-07T14:03:18;7.30;;;1.58;;
68803;SDS011;55787;52.678;13.314;2023-05-07T14:05:46;6.70;;;1.42;;
68803;SDS011;55787;52.678;13.314;2023-05-07T14:08:15;6.25;;;1.70;;
68803;SDS011;55787;52.678;13.314;2023-05-07T14:10:44;5.38;;;1.20;;
68803;SDS011;55787;52.678;13.314;2023-05-07T14:13:12;5.65;;;1.42;;
68803;SDS011;55787;52.678;13.314;2023-05-07T14:15:39;6.95;;;1.45;;
68803;SDS011;55787;52.678;13.314;2023-05-07T14:18:06;6.32;;;1.35;;
68803;SDS011;55787;52.678;13.314;2023-05-07T14:20:33;6.93;;;1.58;;
68803;SDS011;55787;52.678;13.314;2023-05-07T14:23:02;5.72;;;1.48;;
68803;SDS011;55787;52.678;13.314;2023-05-07T14:25:29;6.82;;;1.70;;
68803;SDS011;55787;52.678;13.314;2023-05-07T14:27:56;7.15;;;1.60;;
68803;SDS011;55787;52.678;13.314;2023-05-07T14:30:23;6.03;;;1.48;;
68803;SDS011;55787;52.678;13.314;2023-05-07T14:32:50;6.28;;;1.52;;
68803;SDS011;55787;52.678;13.314;2023-05-07T14:35:17;6.60;;;1.60;;
68803;SDS011;55787;52.678;13.314;2023-05-07T14:37:44;5.75;;;1.40;;
68803;SDS011;55787;52.678;13.314;2023-05-07T14:40:10;6.43;;;1.58;;
68803;SDS011;55787;52.678;13.314;2023-05-07T14:42:38;5.80;;;1.50;;
68803;SDS011;55787;52.678;13.314;2023-05-07T14:45:04;6.15;;;1.40;;
68803;SDS011;55787;52.678;13.314;2023-05-07T14:47:31;6.07;;;1.30;;
68803;SDS011;55787;52.678;13.314;2023-05-07T14:49:58;6.63;;;1.83;;
68803;SDS011;55787;52.678;13.314;2023-05-07T14:52:27;6.03;;;1.50;;
68803;SDS011;55787;52.678;13.314;2023-05-07T14:54:53;5.65;;;1.30;;